createdAt,value
2019-02-02T00:01:28.699Z,1.60
2019-02-02T00:03:55.637Z,1.63
2019-02-02T00:06:22.546Z,1.69
2019-02-02T00:08:49.490Z,1.58
2019-02-02T00:11:16.407Z,1.57
2019-02-02T00:13:43.374Z,1.62
2019-02-02T00:16:10.310Z,1.58
2019-02-02T00:18:37.221Z,1.65
2019-02-02T00:21:04.441Z,1.63
2019-02-02T00:23:31.355Z,1.57
2019-02-02T00:25:58.246Z,1.78
2019-02-02T00:28:25.174Z,1.71
2019-02-02T00:30:52.112Z,1.78
2019-02-02T00:33:19.030Z,1.87
2019-02-02T00:35:45.974Z,1.82
2019-02-02T00:38:12.907Z,1.78
2019-02-02T00:40:39.823Z,1.64
2019-02-02T00:43:06.867Z,1.70
2019-02-02T00:45:33.901Z,1.76
2019-02-02T00:48:00.803Z,1.68
2019-02-02T00:50:27.803Z,1.74
2019-02-02T00:52:54.709Z,1.69
2019-02-02T00:55:21.854Z,1.52
2019-02-02T00:57:53.650Z,1.44
2019-02-02T01:00:18.000Z,1.40
2019-02-02T01:02:45.044Z,1.50
2019-02-02T01:05:13.737Z,1.63
2019-02-02T01:07:40.678Z,1.91
2019-02-02T01:10:12.558Z,2.06
2019-02-02T01:12:39.550Z,2.09
2019-02-02T01:15:07.239Z,2.06
2019-02-02T01:17:34.222Z,1.96
2019-02-02T01:20:01.160Z,1.97
2019-02-02T01:22:28.056Z,2.01
2019-02-02T01:24:55.141Z,1.96
2019-02-02T01:27:22.042Z,1.92
2019-02-02T01:29:49.013Z,1.95
2019-02-02T01:32:15.969Z,2.00
2019-02-02T01:34:42.888Z,2.00
2019-02-02T01:37:09.812Z,2.12
2019-02-02T01:39:36.820Z,1.91
2019-02-02T01:42:03.801Z,1.84
2019-02-02T01:44:30.722Z,1.72
2019-02-02T01:46:57.742Z,1.79
2019-02-02T01:49:24.674Z,1.72
2019-02-02T01:51:51.603Z,1.55
2019-02-02T01:54:18.543Z,1.59
2019-02-02T01:56:45.487Z,1.54
2019-02-02T01:59:12.382Z,1.48
2019-02-02T02:01:41.638Z,1.57
2019-02-02T02:04:08.170Z,1.59
2019-02-02T02:06:35.140Z,1.65
2019-02-02T02:09:02.673Z,1.59
2019-02-02T02:11:29.626Z,1.53
2019-02-02T02:13:56.565Z,1.58
2019-02-02T02:16:23.539Z,1.50
2019-02-02T02:18:50.456Z,1.50
2019-02-02T02:21:17.404Z,1.72
2019-02-02T02:23:44.323Z,1.64
2019-02-02T02:26:11.249Z,1.64
2019-02-02T02:28:38.201Z,1.84
2019-02-02T02:31:05.142Z,1.80
2019-02-02T02:33:32.086Z,1.83
2019-02-02T02:35:59.080Z,2.07
2019-02-02T02:38:26.017Z,1.88
2019-02-02T02:40:53.196Z,2.09
2019-02-02T02:43:20.103Z,2.19
2019-02-02T02:45:47.009Z,2.15
2019-02-02T02:48:14.011Z,2.08
2019-02-02T02:50:40.923Z,2.21
2019-02-02T02:53:07.945Z,2.17
2019-02-02T02:55:34.913Z,2.20
2019-02-02T02:58:01.896Z,2.15
2019-02-02T03:00:28.886Z,2.11
2019-02-02T03:02:55.923Z,2.15
2019-02-02T03:05:22.834Z,2.09
2019-02-02T03:07:50.575Z,2.05
2019-02-02T03:10:19.188Z,1.91
2019-02-02T03:12:46.164Z,1.87
2019-02-02T03:15:15.320Z,1.65
2019-02-02T03:17:42.502Z,1.74
2019-02-02T03:20:10.732Z,1.77
2019-02-02T03:22:37.737Z,1.75
2019-02-02T03:25:06.872Z,1.87
2019-02-02T03:27:34.276Z,1.84
2019-02-02T03:30:01.257Z,1.84
2019-02-02T03:32:28.282Z,1.91
2019-02-02T03:34:55.187Z,1.70
2019-02-02T03:37:22.111Z,1.78
2019-02-02T03:39:49.043Z,1.83
2019-02-02T03:42:15.978Z,1.87
2019-02-02T03:44:42.871Z,1.76
2019-02-02T03:47:09.739Z,1.77
2019-02-02T03:49:36.682Z,1.93
2019-02-02T03:52:03.680Z,2.04
2019-02-02T03:54:30.640Z,1.97
2019-02-02T03:56:57.534Z,1.93
2019-02-02T03:59:24.499Z,1.98
2019-02-02T04:01:51.409Z,1.99
2019-02-02T04:04:18.319Z,2.01
2019-02-02T04:06:45.228Z,2.10
2019-02-02T04:09:12.239Z,1.93
2019-02-02T04:11:39.136Z,2.05
2019-02-02T04:14:06.103Z,1.97
2019-02-02T04:16:33.056Z,2.02
2019-02-02T04:18:59.940Z,2.09
2019-02-02T04:21:26.830Z,2.13
2019-02-02T04:23:53.841Z,2.08
2019-02-02T04:26:20.750Z,2.01
2019-02-02T04:28:47.676Z,1.85
2019-02-02T04:31:14.572Z,1.93
2019-02-02T04:33:41.518Z,1.42
2019-02-02T04:36:08.396Z,2.05
2019-02-02T04:38:35.418Z,1.93
2019-02-02T04:41:02.310Z,1.91
2019-02-02T04:43:29.252Z,1.86
2019-02-02T04:45:56.157Z,1.84
2019-02-02T04:48:23.067Z,1.86
2019-02-02T04:50:49.985Z,1.83
2019-02-02T04:53:16.884Z,1.88
2019-02-02T04:55:43.840Z,1.83
2019-02-02T04:58:10.765Z,1.89
2019-02-02T05:00:37.692Z,1.99
2019-02-02T05:03:04.576Z,1.92
2019-02-02T05:05:31.498Z,1.86
2019-02-02T05:07:58.430Z,1.88
2019-02-02T05:10:25.342Z,2.00
2019-02-02T05:12:52.266Z,1.90
2019-02-02T05:15:19.820Z,1.80
2019-02-02T05:17:46.698Z,2.07
2019-02-02T05:20:14.025Z,1.96
2019-02-02T05:22:40.924Z,1.78
2019-02-02T05:25:08.030Z,1.65
2019-02-02T05:27:34.899Z,1.56
2019-02-02T05:30:01.840Z,1.59
2019-02-02T05:32:28.720Z,1.59
2019-02-02T05:34:55.813Z,1.57
2019-02-02T05:37:22.911Z,1.51
2019-02-02T05:39:49.822Z,1.53
2019-02-02T05:42:16.732Z,1.50
2019-02-02T05:44:43.687Z,1.46
2019-02-02T05:47:10.599Z,1.52
2019-02-02T05:49:37.584Z,1.55
2019-02-02T05:52:04.484Z,1.50
2019-02-02T05:54:31.355Z,1.52
2019-02-02T05:56:58.301Z,1.51
2019-02-02T05:59:25.337Z,1.59
2019-02-02T06:01:52.325Z,1.67
2019-02-02T06:04:19.237Z,1.65
2019-02-02T06:06:46.159Z,1.58
2019-02-02T06:09:13.087Z,1.61
2019-02-02T06:11:40.027Z,1.59
2019-02-02T06:14:06.971Z,1.75
2019-02-02T06:16:33.986Z,1.92
2019-02-02T06:19:01.013Z,1.97
2019-02-02T06:21:27.952Z,2.00
2019-02-02T06:23:54.843Z,1.97
2019-02-02T06:26:21.835Z,1.82
2019-02-02T06:28:48.733Z,1.93
2019-02-02T06:31:15.648Z,1.86
2019-02-02T06:33:42.558Z,1.78
2019-02-02T06:36:09.539Z,1.88
2019-02-02T06:38:36.459Z,1.81
2019-02-02T06:41:03.363Z,1.83
2019-02-02T06:43:30.492Z,1.82
2019-02-02T06:45:57.821Z,1.79
2019-02-02T06:48:24.701Z,1.78
2019-02-02T06:50:51.693Z,1.57
2019-02-02T06:53:18.602Z,1.65
2019-02-02T06:55:45.548Z,1.59
2019-02-02T06:58:12.592Z,1.55
2019-02-02T07:00:39.504Z,1.59
2019-02-02T07:03:06.385Z,1.68
2019-02-02T07:05:33.965Z,1.67
2019-02-02T07:08:01.254Z,1.63
2019-02-02T07:10:28.310Z,1.53
2019-02-02T07:12:55.555Z,1.69
2019-02-02T07:15:24.491Z,1.57
2019-02-02T07:17:51.531Z,1.63
2019-02-02T07:20:18.693Z,1.57
2019-02-02T07:22:45.639Z,1.40
2019-02-02T07:25:12.841Z,1.30
2019-02-02T07:27:39.776Z,1.44
2019-02-02T07:30:12.584Z,1.51
2019-02-02T07:32:39.527Z,1.43
2019-02-02T07:35:07.858Z,1.47
2019-02-02T07:37:34.794Z,1.31
2019-02-02T07:40:01.694Z,1.28
2019-02-02T07:42:28.687Z,1.50
2019-02-02T07:44:55.742Z,1.64
2019-02-02T07:47:22.659Z,1.70
2019-02-02T07:49:49.572Z,1.51
2019-02-02T07:52:16.568Z,1.48
2019-02-02T07:54:43.462Z,1.15
2019-02-02T07:57:10.407Z,1.14
2019-02-02T07:59:37.331Z,1.41
2019-02-02T08:02:04.683Z,1.51
2019-02-02T08:04:31.608Z,1.54
2019-02-02T08:06:58.559Z,1.33
2019-02-02T08:09:25.450Z,1.43
2019-02-02T08:11:52.427Z,1.39
2019-02-02T08:14:19.334Z,1.29
2019-02-02T08:16:46.395Z,1.40
2019-02-02T08:19:13.342Z,1.37
2019-02-02T08:21:40.232Z,1.36
2019-02-02T08:24:07.329Z,1.28
2019-02-02T08:26:34.211Z,1.47
2019-02-02T08:29:01.156Z,1.34
2019-02-02T08:31:28.031Z,1.52
2019-02-02T08:33:54.942Z,1.49
2019-02-02T08:36:22.519Z,1.54
2019-02-02T08:38:49.495Z,1.49
2019-02-02T08:41:16.453Z,1.46
2019-02-02T08:43:43.336Z,1.46
2019-02-02T08:46:10.262Z,1.52
2019-02-02T08:48:37.183Z,1.58
2019-02-02T08:51:04.176Z,1.66
2019-02-02T08:53:31.972Z,1.67
2019-02-02T08:55:58.949Z,1.73
2019-02-02T08:58:25.938Z,1.69
2019-02-02T09:01:03.385Z,1.83
2019-02-02T09:03:21.688Z,1.87
2019-02-02T09:05:50.965Z,1.78
2019-02-02T09:08:17.407Z,1.73
2019-02-02T09:10:44.289Z,1.76
2019-02-02T09:13:11.316Z,1.75
2019-02-02T09:15:38.230Z,1.65
2019-02-02T09:18:05.320Z,1.70
2019-02-02T09:20:32.310Z,1.69
2019-02-02T09:23:05.779Z,1.82
2019-02-02T09:25:28.037Z,1.98
2019-02-02T09:27:54.958Z,1.93
2019-02-02T09:30:33.091Z,1.88
2019-02-02T09:33:00.162Z,2.01
2019-02-02T09:35:27.081Z,1.89
2019-02-02T09:37:53.975Z,1.83
2019-02-02T09:40:21.023Z,1.84
2019-02-02T09:42:48.058Z,1.91
2019-02-02T09:45:16.684Z,1.79
2019-02-02T09:47:43.657Z,1.80
2019-02-02T09:50:13.031Z,1.83
2019-02-02T09:52:39.938Z,1.88
2019-02-02T09:55:09.510Z,1.76
2019-02-02T09:57:37.197Z,1.80
2019-02-02T10:00:07.016Z,1.70
2019-02-02T10:02:33.892Z,1.69
2019-02-02T10:05:00.893Z,1.72
2019-02-02T10:07:27.785Z,1.76
2019-02-02T10:09:54.742Z,1.83
2019-02-02T10:12:21.671Z,1.93
2019-02-02T10:14:48.644Z,1.85
2019-02-02T10:17:15.535Z,1.81
2019-02-02T10:19:42.476Z,1.88
2019-02-02T10:22:09.427Z,1.93
2019-02-02T10:24:36.341Z,1.92
2019-02-02T10:27:03.377Z,1.91
2019-02-02T10:29:30.268Z,1.79
2019-02-02T10:31:57.207Z,1.82
2019-02-02T10:34:24.148Z,1.72
2019-02-02T10:36:51.064Z,1.71
2019-02-02T10:39:17.974Z,1.74
2019-02-02T10:41:44.920Z,1.83
2019-02-02T10:44:11.822Z,1.81
2019-02-02T10:46:38.803Z,1.81
2019-02-02T10:49:05.757Z,1.80
2019-02-02T10:51:32.729Z,1.81
2019-02-02T10:53:59.622Z,1.75
2019-02-02T10:56:26.560Z,1.73
2019-02-02T10:58:53.435Z,1.76
2019-02-02T11:01:20.403Z,1.70
2019-02-02T11:03:47.320Z,1.72
2019-02-02T11:06:14.240Z,1.78
2019-02-02T11:08:41.153Z,1.75
2019-02-02T11:11:08.075Z,1.69
2019-02-02T11:13:35.077Z,1.74
2019-02-02T11:16:02.184Z,1.66
2019-02-02T11:18:29.156Z,1.65
2019-02-02T11:20:56.150Z,1.67
2019-02-02T11:23:23.132Z,1.73
2019-02-02T11:25:50.061Z,1.77
2019-02-02T11:28:16.964Z,1.82
2019-02-02T11:30:44.018Z,1.44
2019-02-02T11:33:10.960Z,1.81
2019-02-02T11:35:37.838Z,1.84
2019-02-02T11:38:04.809Z,1.66
2019-02-02T11:40:33.856Z,1.65
2019-02-02T11:43:00.817Z,1.69
2019-02-02T11:45:27.713Z,1.73
2019-02-02T11:47:55.790Z,1.69
2019-02-02T11:50:23.159Z,1.67
2019-02-02T11:52:50.513Z,1.82
2019-02-02T11:55:17.939Z,1.86
2019-02-02T11:57:44.941Z,1.88
2019-02-02T12:00:16.388Z,1.86
2019-02-02T12:02:49.450Z,1.87
2019-02-02T12:05:13.170Z,1.80
2019-02-02T12:07:40.145Z,1.78
2019-02-02T12:10:09.212Z,1.91
2019-02-02T12:12:36.419Z,1.88
2019-02-02T12:15:05.455Z,1.83
2019-02-02T12:17:32.444Z,1.97
2019-02-02T12:19:59.328Z,2.16
2019-02-02T12:22:26.796Z,2.09
2019-02-02T12:24:53.833Z,2.10
2019-02-02T12:27:21.028Z,1.94
2019-02-02T12:29:47.929Z,1.94
2019-02-02T12:32:25.838Z,1.86
2019-02-02T12:34:43.777Z,1.84
2019-02-02T12:37:10.693Z,1.98
2019-02-02T12:39:37.594Z,1.94
2019-02-02T12:42:04.527Z,1.93
2019-02-02T12:44:31.466Z,1.96
2019-02-02T12:46:58.429Z,1.98
2019-02-02T12:49:25.538Z,1.87
2019-02-02T12:51:52.494Z,2.01
2019-02-02T12:54:19.467Z,2.01
2019-02-02T12:56:46.382Z,2.03
2019-02-02T12:59:13.325Z,1.96
2019-02-02T13:01:40.279Z,1.99
2019-02-02T13:04:07.369Z,1.95
2019-02-02T13:06:34.315Z,1.92
2019-02-02T13:09:01.407Z,1.99
2019-02-02T13:11:28.333Z,2.17
2019-02-02T13:13:55.270Z,2.05
2019-02-02T13:16:22.178Z,2.15
2019-02-02T13:18:49.114Z,2.12
2019-02-02T13:21:16.047Z,2.16
2019-02-02T13:23:42.987Z,2.16
2019-02-02T13:26:09.931Z,2.06
2019-02-02T13:28:36.870Z,1.89
2019-02-02T13:31:03.898Z,2.11
2019-02-02T13:33:30.847Z,2.01
2019-02-02T13:35:57.750Z,1.96
2019-02-02T13:38:24.784Z,1.93
2019-02-02T13:40:51.762Z,1.74
2019-02-02T13:43:18.757Z,2.02
2019-02-02T13:45:45.637Z,1.99
2019-02-02T13:48:12.575Z,1.95
2019-02-02T13:50:39.540Z,1.88
2019-02-02T13:53:07.661Z,1.85
2019-02-02T13:55:34.843Z,1.91
2019-02-02T13:58:01.794Z,1.91
2019-02-02T14:00:29.850Z,1.67
2019-02-02T14:03:02.702Z,1.65
2019-02-02T14:05:30.356Z,1.83
2019-02-02T14:08:00.051Z,1.80
2019-02-02T14:10:27.760Z,1.71
2019-02-02T14:12:54.729Z,1.65
2019-02-02T14:15:21.803Z,1.73
2019-02-02T14:17:48.705Z,1.73
2019-02-02T14:20:15.623Z,1.62
2019-02-02T14:22:42.648Z,1.60
2019-02-02T14:25:10.073Z,1.59
2019-02-02T14:27:37.019Z,1.57
2019-02-02T14:30:07.312Z,1.61
2019-02-02T14:32:34.326Z,1.55
2019-02-02T14:35:01.287Z,1.36
2019-02-02T14:37:28.184Z,1.51
2019-02-02T14:39:55.113Z,1.56
2019-02-02T14:42:22.035Z,1.46
2019-02-02T14:44:48.978Z,1.38
2019-02-02T14:47:15.900Z,1.32
2019-02-02T14:49:42.802Z,1.32
2019-02-02T14:52:09.720Z,1.20
2019-02-02T14:54:36.671Z,1.22
2019-02-02T14:57:03.695Z,1.33
2019-02-02T14:59:30.630Z,1.38
2019-02-02T15:01:57.522Z,1.39
2019-02-02T15:04:24.460Z,1.53
2019-02-02T15:06:51.359Z,1.50
2019-02-02T15:09:18.306Z,1.47
2019-02-02T15:11:45.563Z,1.51
2019-02-02T15:14:12.539Z,1.44
2019-02-02T15:16:39.494Z,1.34
2019-02-02T15:19:06.416Z,1.38
2019-02-02T15:21:33.395Z,1.38
2019-02-02T15:24:00.291Z,1.36
2019-02-02T15:26:27.239Z,1.31
2019-02-02T15:28:54.244Z,1.24
2019-02-02T15:31:21.167Z,1.25
2019-02-02T15:33:48.127Z,1.30
2019-02-02T15:36:15.082Z,1.33
2019-02-02T15:38:42.427Z,1.49
2019-02-02T15:41:09.349Z,1.55
2019-02-02T15:43:36.226Z,1.51
2019-02-02T15:46:03.278Z,1.40
2019-02-02T15:48:30.160Z,1.38
2019-02-02T15:50:57.210Z,1.36
2019-02-02T15:53:24.150Z,1.40
2019-02-02T15:55:51.083Z,1.55
2019-02-02T15:58:17.977Z,1.47
2019-02-02T16:00:45.019Z,1.47
2019-02-02T16:03:11.920Z,1.35
2019-02-02T16:05:39.052Z,1.45
2019-02-02T16:08:13.707Z,1.46
2019-02-02T16:10:40.661Z,1.31
2019-02-02T16:13:07.568Z,1.58
2019-02-02T16:15:34.747Z,1.72
2019-02-02T16:18:01.798Z,1.55
2019-02-02T16:20:31.440Z,1.47
2019-02-02T16:22:58.456Z,1.30
2019-02-02T16:25:25.334Z,1.34
2019-02-02T16:27:52.282Z,1.29
2019-02-02T16:30:21.150Z,1.56
2019-02-02T16:32:48.098Z,1.49
2019-02-02T16:35:15.028Z,1.51
2019-02-02T16:37:41.927Z,1.39
2019-02-02T16:40:12.275Z,1.30
2019-02-02T16:42:39.271Z,1.37
2019-02-02T16:45:08.557Z,1.46
2019-02-02T16:47:35.536Z,1.68
2019-02-02T16:50:02.861Z,1.31
2019-02-02T16:52:30.001Z,1.43
2019-02-02T16:54:56.889Z,1.27
2019-02-02T16:57:23.831Z,1.32
2019-02-02T16:59:50.742Z,1.28
2019-02-02T17:02:17.714Z,1.34
2019-02-02T17:04:44.648Z,1.56
2019-02-02T17:07:11.603Z,1.47
2019-02-02T17:09:41.389Z,1.55
2019-02-02T17:12:07.442Z,1.56
2019-02-02T17:14:34.456Z,1.49
2019-02-02T17:17:01.397Z,1.50
2019-02-02T17:19:28.290Z,1.52
2019-02-02T17:21:55.266Z,1.52
2019-02-02T17:24:22.203Z,1.50
2019-02-02T17:26:49.153Z,1.59
2019-02-02T17:29:16.144Z,1.53
2019-02-02T17:31:43.040Z,1.53
2019-02-02T17:34:10.022Z,1.49
2019-02-02T17:36:37.009Z,1.45
2019-02-02T17:39:05.554Z,1.38
2019-02-02T17:41:32.458Z,1.48
2019-02-02T17:43:59.389Z,1.44
2019-02-02T17:46:26.352Z,1.36
2019-02-02T17:48:53.362Z,1.41
2019-02-02T17:51:20.576Z,1.33
2019-02-02T17:53:47.519Z,1.35
2019-02-02T17:56:14.411Z,1.52
2019-02-02T17:58:41.327Z,1.71
2019-02-02T18:01:08.255Z,1.67
2019-02-02T18:03:35.176Z,1.58
2019-02-02T18:06:02.097Z,1.51
2019-02-02T18:08:29.048Z,1.39
2019-02-02T18:10:55.956Z,1.30
2019-02-02T18:13:23.110Z,1.37
2019-02-02T18:15:50.006Z,1.40
2019-02-02T18:18:16.931Z,1.44
2019-02-02T18:20:43.883Z,1.36
2019-02-02T18:23:10.820Z,1.46
2019-02-02T18:25:37.746Z,1.42
2019-02-02T18:28:04.678Z,1.51
2019-02-02T18:30:31.651Z,1.63
2019-02-02T18:32:58.551Z,1.67
2019-02-02T18:35:25.834Z,1.59
2019-02-02T18:37:52.772Z,1.45
2019-02-02T18:40:19.915Z,1.41
2019-02-02T18:42:46.901Z,1.40
2019-02-02T18:45:16.672Z,1.62
2019-02-02T18:47:43.579Z,1.62
2019-02-02T18:50:12.491Z,1.40
2019-02-02T18:52:39.458Z,1.55
2019-02-02T18:55:08.624Z,1.47
2019-02-02T18:57:35.564Z,1.55
2019-02-02T19:00:06.157Z,1.37
2019-02-02T19:02:31.905Z,1.47
2019-02-02T19:05:04.049Z,1.48
2019-02-02T19:07:27.782Z,1.50
2019-02-02T19:09:54.799Z,1.50
2019-02-02T19:12:21.751Z,1.50
2019-02-02T19:14:48.660Z,1.56
2019-02-02T19:17:15.588Z,1.38
2019-02-02T19:19:42.553Z,1.40
2019-02-02T19:22:09.468Z,1.43
2019-02-02T19:24:36.410Z,1.44
2019-02-02T19:27:03.284Z,1.20
2019-02-02T19:29:30.374Z,1.36
2019-02-02T19:31:57.354Z,1.32
2019-02-02T19:34:24.609Z,1.40
2019-02-02T19:36:51.484Z,1.13
2019-02-02T19:39:18.389Z,1.31
2019-02-02T19:41:45.271Z,1.31
2019-02-02T19:44:12.179Z,1.27
2019-02-02T19:46:39.049Z,1.40
2019-02-02T19:49:05.972Z,1.37
2019-02-02T19:51:33.634Z,1.18
2019-02-02T19:54:00.943Z,1.23
2019-02-02T19:56:27.892Z,1.26
2019-02-02T19:58:54.827Z,1.32
2019-02-02T20:01:21.816Z,1.41
2019-02-02T20:03:48.712Z,1.30
2019-02-02T20:06:15.641Z,1.20
2019-02-02T20:08:42.518Z,1.22
2019-02-02T20:11:09.453Z,1.25
2019-02-02T20:13:36.932Z,1.15
2019-02-02T20:16:04.312Z,1.22
2019-02-02T20:18:31.232Z,1.30
2019-02-02T20:20:58.152Z,1.31
2019-02-02T20:23:25.040Z,1.29
2019-02-02T20:25:51.993Z,1.24
2019-02-02T20:28:18.884Z,1.29
2019-02-02T20:30:45.969Z,1.31
2019-02-02T20:33:12.839Z,1.31
2019-02-02T20:35:42.349Z,1.40
2019-02-02T20:38:08.622Z,1.24
2019-02-02T20:40:35.563Z,1.18
2019-02-02T20:43:02.603Z,1.32
2019-02-02T20:45:31.601Z,1.29
2019-02-02T20:47:58.537Z,1.26
2019-02-02T20:50:25.484Z,1.41
2019-02-02T20:52:52.374Z,1.37
2019-02-02T20:55:27.369Z,1.41
2019-02-02T20:57:54.282Z,1.34
2019-02-02T21:00:22.799Z,1.32
2019-02-02T21:02:49.737Z,1.31
2019-02-02T21:05:16.638Z,1.18
2019-02-02T21:07:43.695Z,1.36
2019-02-02T21:10:13.439Z,1.44
2019-02-02T21:12:40.347Z,1.34
2019-02-02T21:15:08.922Z,1.27
2019-02-02T21:17:35.855Z,1.25
2019-02-02T21:20:04.016Z,1.29
2019-02-02T21:22:30.926Z,1.32
2019-02-02T21:24:57.805Z,1.30
2019-02-02T21:27:25.129Z,1.16
2019-02-02T21:29:52.489Z,1.24
2019-02-02T21:32:19.400Z,1.32
2019-02-02T21:34:46.488Z,1.35
2019-02-02T21:37:13.432Z,1.38
2019-02-02T21:39:40.343Z,1.43
2019-02-02T21:42:07.711Z,1.26
2019-02-02T21:44:42.946Z,1.32
2019-02-02T21:47:03.774Z,1.33
2019-02-02T21:49:30.878Z,1.29
2019-02-02T21:51:57.821Z,1.28
2019-02-02T21:54:25.773Z,1.27
2019-02-02T21:56:52.923Z,1.25
2019-02-02T21:59:19.830Z,1.33
2019-02-02T22:01:46.814Z,1.27
2019-02-02T22:04:13.727Z,1.17
2019-02-02T22:06:40.642Z,1.24
2019-02-02T22:09:07.843Z,1.28
2019-02-02T22:11:34.746Z,1.27
2019-02-02T22:14:02.019Z,1.32
2019-02-02T22:16:28.972Z,1.25
2019-02-02T22:18:55.962Z,1.38
2019-02-02T22:21:22.903Z,1.28
2019-02-02T22:23:49.904Z,1.21
2019-02-02T22:26:16.867Z,1.30
2019-02-02T22:28:43.816Z,1.26
2019-02-02T22:31:10.879Z,1.24
2019-02-02T22:33:37.823Z,1.37
2019-02-02T22:36:04.769Z,1.39
2019-02-02T22:38:31.751Z,1.29
2019-02-02T22:40:58.729Z,1.17
2019-02-02T22:43:25.647Z,1.28
2019-02-02T22:45:52.913Z,1.13
2019-02-02T22:48:19.889Z,1.14
2019-02-02T22:50:46.795Z,1.31
2019-02-02T22:53:13.926Z,1.30
2019-02-02T22:55:40.840Z,1.22
2019-02-02T22:58:07.875Z,1.29
2019-02-02T23:01:03.517Z,1.35
2019-02-02T23:03:46.123Z,1.34
2019-02-02T23:06:49.645Z,1.28
2019-02-02T23:09:54.397Z,1.27
2019-02-02T23:12:30.560Z,1.31
2019-02-02T23:15:27.802Z,1.20
2019-02-02T23:17:54.669Z,1.26
2019-02-02T23:20:21.610Z,1.26
2019-02-02T23:22:48.499Z,1.22
2019-02-02T23:25:15.479Z,1.19
2019-02-02T23:27:42.360Z,1.13
2019-02-02T23:30:10.624Z,1.09
2019-02-02T23:32:37.596Z,1.13
2019-02-02T23:35:04.624Z,1.16
2019-02-02T23:37:31.500Z,1.19
2019-02-02T23:39:58.410Z,1.11
2019-02-02T23:42:25.362Z,1.08
2019-02-02T23:44:52.369Z,1.04
2019-02-02T23:47:19.702Z,1.03
2019-02-02T23:49:46.621Z,1.22
2019-02-02T23:52:13.559Z,1.24
2019-02-02T23:54:40.452Z,1.18
2019-02-02T23:57:07.339Z,1.17
2019-02-02T23:59:35.284Z,1.14
